createdAt,value
2018-01-11T00:01:03.720Z,99822
2018-01-11T00:06:06.129Z,99817
2018-01-11T00:11:08.413Z,99817
2018-01-11T00:16:10.769Z,99800
2018-01-11T00:21:12.342Z,99800
2018-01-11T00:26:13.884Z,99810
2018-01-11T00:31:15.412Z,99810
2018-01-11T00:36:17.668Z,99807
2018-01-11T00:41:19.209Z,99804
2018-01-11T00:46:20.750Z,99808
2018-01-11T00:51:22.339Z,99804
2018-01-11T00:56:23.867Z,99804
2018-01-11T01:01:26.196Z,99807
2018-01-11T01:06:27.760Z,99804
2018-01-11T01:11:29.281Z,99806
2018-01-11T01:16:31.553Z,99810
2018-01-11T01:21:33.053Z,99812
2018-01-11T01:26:34.752Z,99809
2018-01-11T01:31:36.268Z,99819
2018-01-11T01:36:38.512Z,99817
2018-01-11T01:41:40.060Z,99823
2018-01-11T01:46:41.597Z,99822
2018-01-11T01:51:43.939Z,99827
2018-01-11T01:56:46.264Z,99812
2018-01-11T02:01:48.499Z,99826
2018-01-11T02:06:50.066Z,99828
2018-01-11T02:11:51.660Z,99825
2018-01-11T02:16:53.179Z,99827
2018-01-11T02:21:54.698Z,99834
2018-01-11T02:26:56.224Z,99829
2018-01-11T02:31:57.755Z,99838
2018-01-11T02:37:00.089Z,99836
2018-01-11T02:42:01.613Z,99838
2018-01-11T02:47:03.860Z,99838
2018-01-11T02:52:05.392Z,99854
2018-01-11T02:57:06.974Z,99850
2018-01-11T03:02:09.417Z,99850
2018-01-11T03:07:11.688Z,99854
2018-01-11T03:12:13.309Z,99854
2018-01-11T03:17:14.873Z,99858
2018-01-11T03:22:16.427Z,99862
2018-01-11T03:27:18.669Z,99864
2018-01-11T03:32:20.148Z,99872
2018-01-11T03:37:21.694Z,99863
2018-01-11T03:42:23.182Z,99863
2018-01-11T03:47:24.816Z,99868
2018-01-11T03:52:26.328Z,99871
2018-01-11T03:57:28.648Z,99872
2018-01-11T04:02:30.217Z,99869
2018-01-11T04:07:31.791Z,99877
2018-01-11T04:12:33.378Z,99877
2018-01-11T04:17:34.957Z,99879
2018-01-11T04:22:36.485Z,99883
2018-01-11T04:27:38.029Z,99892
2018-01-11T04:32:40.280Z,99880
2018-01-11T04:37:41.856Z,99893
2018-01-11T04:42:43.399Z,99900
2018-01-11T04:47:44.976Z,99907
2018-01-11T04:52:46.543Z,99907
2018-01-11T04:57:48.068Z,99901
2018-01-11T05:02:49.720Z,99903
2018-01-11T05:07:51.978Z,99912
2018-01-11T05:12:53.529Z,99904
2018-01-11T05:17:55.092Z,99917
2018-01-11T05:22:56.773Z,99920
2018-01-11T05:27:58.310Z,99921
2018-01-11T05:32:59.851Z,99929
2018-01-11T05:38:02.193Z,99934
2018-01-11T05:43:03.753Z,99939
2018-01-11T05:48:05.272Z,99936
2018-01-11T05:53:07.620Z,99950
2018-01-11T05:58:09.163Z,99935
2018-01-11T06:03:10.792Z,99943
2018-01-11T06:08:13.061Z,99945
2018-01-11T06:13:14.690Z,99949
2018-01-11T06:18:16.201Z,99955
2018-01-11T06:23:17.702Z,99956
2018-01-11T06:28:19.217Z,99968
2018-01-11T06:33:20.719Z,99964
2018-01-11T06:38:22.985Z,99965
2018-01-11T06:43:24.562Z,99970
2018-01-11T06:48:26.071Z,99976
2018-01-11T06:53:27.576Z,99989
2018-01-11T06:58:29.106Z,99987
2018-01-11T07:03:30.639Z,100007
2018-01-11T07:08:32.889Z,100000
2018-01-11T07:13:34.442Z,100014
2018-01-11T07:18:36.064Z,100009
2018-01-11T07:23:38.347Z,100019
2018-01-11T07:28:41.453Z,100031
2018-01-11T07:33:43.000Z,100035
2018-01-11T07:38:44.529Z,100050
2018-01-11T07:43:46.015Z,100046
2018-01-11T07:48:47.531Z,100051
2018-01-11T07:53:49.787Z,100063
2018-01-11T07:58:51.281Z,100076
2018-01-11T08:03:53.518Z,100081
2018-01-11T08:08:55.090Z,100081
2018-01-11T08:13:56.693Z,100086
2018-01-11T08:18:59.034Z,100094
2018-01-11T08:24:01.215Z,100096
2018-01-11T08:29:02.898Z,100110
2018-01-11T08:34:04.509Z,100112
2018-01-11T08:39:06.777Z,100119
2018-01-11T08:44:08.284Z,100124
2018-01-11T08:49:09.799Z,100131
2018-01-11T08:54:12.700Z,100131
2018-01-11T08:59:14.816Z,100134
2018-01-11T09:04:16.844Z,100142
2018-01-11T09:09:18.365Z,100151
2018-01-11T09:14:19.865Z,100149
2018-01-11T09:19:22.324Z,100152
2018-01-11T09:24:23.813Z,100161
2018-01-11T09:29:25.481Z,100169
2018-01-11T09:34:28.897Z,100170
2018-01-11T09:39:30.713Z,100178
2018-01-11T09:44:32.297Z,100188
2018-01-11T09:49:34.514Z,100175
2018-01-11T09:54:35.992Z,100181
2018-01-11T09:59:37.607Z,100188
2018-01-11T10:04:39.186Z,100179
2018-01-11T10:09:41.420Z,100186
2018-01-11T10:14:42.943Z,100190
2018-01-11T10:19:45.202Z,100187
2018-01-11T10:24:47.508Z,100200
2018-01-11T10:29:49.767Z,100202
2018-01-11T10:34:51.228Z,100206
2018-01-11T10:39:53.489Z,100204
2018-01-11T10:44:55.003Z,100208
2018-01-11T10:49:56.499Z,100203
2018-01-11T10:54:58.070Z,100217
2018-01-11T10:59:59.558Z,100204
2018-01-11T11:05:01.046Z,100208
2018-01-11T11:10:02.573Z,100213
2018-01-11T11:15:04.148Z,100207
2018-01-11T11:20:05.765Z,100204
2018-01-11T11:25:07.489Z,100210
2018-01-11T11:30:09.147Z,100210
2018-01-11T11:35:10.851Z,100205
2018-01-11T11:40:12.324Z,100213
2018-01-11T11:45:13.858Z,100214
2018-01-11T11:50:15.369Z,100207
2018-01-11T11:55:16.928Z,100207
2018-01-11T12:00:18.476Z,100204
2018-01-11T12:05:19.984Z,100205
2018-01-11T12:10:21.531Z,100213
2018-01-11T12:15:23.045Z,100217
2018-01-11T12:20:25.296Z,100225
2018-01-11T12:25:26.819Z,100232
2018-01-11T12:30:28.407Z,100222
2018-01-11T12:35:29.944Z,100223
2018-01-11T12:40:31.455Z,100226
2018-01-11T12:45:32.945Z,100226
2018-01-11T12:50:34.480Z,100227
2018-01-11T12:55:35.969Z,100234
2018-01-11T13:00:37.476Z,100245
2018-01-11T13:05:39.033Z,100241
2018-01-11T13:10:41.277Z,100243
2018-01-11T13:15:42.774Z,100239
2018-01-11T13:20:44.304Z,100239
2018-01-11T13:25:45.868Z,100240
2018-01-11T13:30:47.420Z,100249
2018-01-11T13:35:48.906Z,100267
2018-01-11T13:40:50.410Z,100267
2018-01-11T13:45:52.017Z,100275
2018-01-11T13:50:53.632Z,100282
2018-01-11T13:55:55.164Z,100288
2018-01-11T14:00:56.640Z,100289
2018-01-11T14:05:58.099Z,100299
2018-01-11T14:10:59.635Z,100302
2018-01-11T14:16:01.910Z,100311
2018-01-11T14:21:04.213Z,100306
2018-01-11T14:26:05.716Z,100330
2018-01-11T14:31:07.259Z,100318
2018-01-11T14:36:08.781Z,100318
2018-01-11T14:41:10.315Z,100324
2018-01-11T14:46:11.837Z,100322
2018-01-11T14:51:14.164Z,100336
2018-01-11T14:56:15.777Z,100341
2018-01-11T15:01:17.317Z,100344
2018-01-11T15:06:18.812Z,100342
2018-01-11T15:11:20.313Z,100356
2018-01-11T15:16:21.885Z,100365
2018-01-11T15:21:23.354Z,100367
2018-01-11T15:26:24.844Z,100378
2018-01-11T15:31:26.370Z,100381
2018-01-11T15:36:27.917Z,100386
2018-01-11T15:41:29.415Z,100383
2018-01-11T15:46:30.898Z,100388
2018-01-11T15:51:32.320Z,100400
2018-01-11T15:56:34.526Z,100403
2018-01-11T16:01:36.060Z,100404
2018-01-11T16:06:37.608Z,100412
2018-01-11T16:11:39.132Z,100416
2018-01-11T16:16:40.702Z,100430
2018-01-11T16:21:42.244Z,100437
2018-01-11T16:26:44.548Z,100426
2018-01-11T16:31:46.159Z,100441
2018-01-11T16:36:47.861Z,100449
2018-01-11T16:41:49.396Z,100441
2018-01-11T16:46:51.117Z,100452
2018-01-11T16:51:52.725Z,100457
2018-01-11T16:56:54.281Z,100463
2018-01-11T17:01:55.893Z,100467
2018-01-11T17:06:57.477Z,100485
2018-01-11T17:11:59.018Z,100471
2018-01-11T17:17:00.537Z,100478
2018-01-11T17:22:02.858Z,100478
2018-01-11T17:27:04.383Z,100492
2018-01-11T17:32:06.704Z,100496
2018-01-11T17:37:08.309Z,100503
2018-01-11T17:42:09.883Z,100498
2018-01-11T17:47:11.445Z,100512
2018-01-11T17:52:13.003Z,100516
2018-01-11T17:57:14.717Z,100524
2018-01-11T18:02:16.305Z,100534
2018-01-11T18:07:17.857Z,100536
2018-01-11T18:12:19.645Z,100536
2018-01-11T18:17:21.278Z,100542
2018-01-11T18:22:22.845Z,100544
2018-01-11T18:27:24.392Z,100550
2018-01-11T18:32:26.876Z,100555
2018-01-11T18:37:28.457Z,100546
2018-01-11T18:42:29.999Z,100557
2018-01-11T18:47:31.544Z,100561
2018-01-11T18:52:33.786Z,100561
2018-01-11T18:57:35.435Z,100555
2018-01-11T19:02:36.976Z,100573
2018-01-11T19:07:38.564Z,100573
2018-01-11T19:12:40.242Z,100578
2018-01-11T19:17:41.781Z,100589
2018-01-11T19:22:43.347Z,100564
2018-01-11T19:27:44.916Z,100569
2018-01-11T19:32:46.523Z,100582
2018-01-11T19:37:48.069Z,100583
2018-01-11T19:42:49.602Z,100605
2018-01-11T19:47:51.174Z,100597
2018-01-11T19:52:52.782Z,100608
2018-01-11T19:57:54.402Z,100616
2018-01-11T20:02:56.720Z,100619
2018-01-11T20:07:58.392Z,100628
2018-01-11T20:13:00.045Z,100627
2018-01-11T20:18:01.599Z,100630
2018-01-11T20:23:03.124Z,100649
2018-01-11T20:28:04.780Z,100651
2018-01-11T20:33:06.367Z,100649
2018-01-11T20:38:07.922Z,100648
2018-01-11T20:43:09.755Z,100651
2018-01-11T20:48:11.349Z,100655
2018-01-11T20:53:12.889Z,100653
2018-01-11T20:58:14.493Z,100659
2018-01-11T21:03:16.128Z,100664
2018-01-11T21:08:17.645Z,100674
2018-01-11T21:13:19.147Z,100673
2018-01-11T21:18:21.528Z,100681
2018-01-11T21:23:23.078Z,100690
2018-01-11T21:28:24.601Z,100691
2018-01-11T21:33:26.379Z,100696
2018-01-11T21:38:27.980Z,100697
2018-01-11T21:43:29.661Z,100706
2018-01-11T21:48:31.220Z,100703
2018-01-11T21:53:32.795Z,100711
2018-01-11T21:58:34.402Z,100714
2018-01-11T22:03:36.436Z,100714
2018-01-11T22:08:38.083Z,100710
2018-01-11T22:13:39.675Z,100730
2018-01-11T22:18:41.229Z,100721
2018-01-11T22:23:42.839Z,100723
2018-01-11T22:28:45.179Z,100730
2018-01-11T22:33:46.801Z,100727
2018-01-11T22:38:49.156Z,100724
2018-01-11T22:43:50.752Z,100742
2018-01-11T22:48:52.370Z,100738
2018-01-11T22:53:53.969Z,100736
2018-01-11T22:58:55.540Z,100749
2018-01-11T23:03:57.095Z,100746
2018-01-11T23:08:58.681Z,100751
2018-01-11T23:14:00.300Z,100758
2018-01-11T23:19:01.838Z,100744
2018-01-11T23:24:04.113Z,100771
2018-01-11T23:29:05.647Z,100776
2018-01-11T23:34:07.241Z,100774
2018-01-11T23:39:08.814Z,100773
2018-01-11T23:44:11.131Z,100770
2018-01-11T23:49:12.720Z,100770
2018-01-11T23:54:14.310Z,100773
2018-01-11T23:59:15.893Z,100786
